sensor_id;sensor_type;location;lat;lon;timestamp;temperature;humidity
19031;DHT22;9648;51.130;13.978;2023-05-20T00:01:11;10.80;99.90
19031;DHT22;9648;51.130;13.978;2023-05-20T00:03:37;10.80;99.90
19031;DHT22;9648;51.130;13.978;2023-05-20T00:06:04;10.80;99.90
19031;DHT22;9648;51.130;13.978;2023-05-20T00:08:32;10.80;99.90
19031;DHT22;9648;51.130;13.978;2023-05-20T00:10:58;10.80;99.90
19031;DHT22;9648;51.130;13.978;2023-05-20T00:13:25;10.70;99.90
19031;DHT22;9648;51.130;13.978;2023-05-20T00:15:52;10.70;99.90
19031;DHT22;9648;51.130;13.978;2023-05-20T00:18:19;10.70;99.90
19031;DHT22;9648;51.130;13.978;2023-05-20T00:20:45;10.70;99.90
19031;DHT22;9648;51.130;13.978;2023-05-20T00:23:12;10.70;99.90
19031;DHT22;9648;51.130;13.978;2023-05-20T00:25:40;10.70;99.90
19031;DHT22;9648;51.130;13.978;2023-05-20T00:28:07;10.60;99.90
19031;DHT22;9648;51.130;13.978;2023-05-20T00:30:34;10.60;99.90
19031;DHT22;9648;51.130;13.978;2023-05-20T00:33:00;10.60;99.90
19031;DHT22;9648;51.130;13.978;2023-05-20T00:35:27;10.50;99.90
19031;DHT22;9648;51.130;13.978;2023-05-20T00:37:54;10.50;99.90
19031;DHT22;9648;51.130;13.978;2023-05-20T00:40:24;10.50;99.90
19031;DHT22;9648;51.130;13.978;2023-05-20T00:42:52;10.50;99.90
19031;DHT22;9648;51.130;13.978;2023-05-20T00:45:22;10.40;99.90
19031;DHT22;9648;51.130;13.978;2023-05-20T00:47:48;10.40;99.90
19031;DHT22;9648;51.130;13.978;2023-05-20T00:50:16;10.40;99.90
19031;DHT22;9648;51.130;13.978;2023-05-20T00:52:43;10.40;99.90
19031;DHT22;9648;51.130;13.978;2023-05-20T00:55:12;10.40;99.90
19031;DHT22;9648;51.130;13.978;2023-05-20T00:57:39;10.40;99.90
19031;DHT22;9648;51.130;13.978;2023-05-20T01:00:08;10.40;99.90
19031;DHT22;9648;51.130;13.978;2023-05-20T01:02:35;10.40;99.90
19031;DHT22;9648;51.130;13.978;2023-05-20T01:05:02;10.50;99.90
19031;DHT22;9648;51.130;13.978;2023-05-20T01:07:29;10.50;99.90
19031;DHT22;9648;51.130;13.978;2023-05-20T01:09:59;10.40;99.90
19031;DHT22;9648;51.130;13.978;2023-05-20T01:12:29;10.40;99.90
19031;DHT22;9648;51.130;13.978;2023-05-20T01:14:58;10.50;99.90
19031;DHT22;9648;51.130;13.978;2023-05-20T01:17:30;10.50;99.90
19031;DHT22;9648;51.130;13.978;2023-05-20T01:19:59;10.50;99.90
19031;DHT22;9648;51.130;13.978;2023-05-20T01:22:27;10.40;99.90
19031;DHT22;9648;51.130;13.978;2023-05-20T01:24:54;10.40;99.90
19031;DHT22;9648;51.130;13.978;2023-05-20T01:27:22;10.40;99.90
19031;DHT22;9648;51.130;13.978;2023-05-20T01:29:52;10.40;99.90
19031;DHT22;9648;51.130;13.978;2023-05-20T01:32:22;10.40;99.90
19031;DHT22;9648;51.130;13.978;2023-05-20T01:34:50;10.30;99.90
19031;DHT22;9648;51.130;13.978;2023-05-20T01:37:17;10.30;99.90
19031;DHT22;9648;51.130;13.978;2023-05-20T01:39:48;10.30;99.90
19031;DHT22;9648;51.130;13.978;2023-05-20T01:42:16;10.30;99.90
19031;DHT22;9648;51.130;13.978;2023-05-20T01:44:43;10.30;99.90
19031;DHT22;9648;51.130;13.978;2023-05-20T01:47:10;10.30;99.90
19031;DHT22;9648;51.130;13.978;2023-05-20T01:49:37;10.30;99.90
19031;DHT22;9648;51.130;13.978;2023-05-20T01:52:04;10.30;99.90
19031;DHT22;9648;51.130;13.978;2023-05-20T01:54:31;10.20;99.90
19031;DHT22;9648;51.130;13.978;2023-05-20T01:56:59;10.30;99.90
19031;DHT22;9648;51.130;13.978;2023-05-20T01:59:29;10.20;99.90
19031;DHT22;9648;51.130;13.978;2023-05-20T02:01:55;10.20;99.90
19031;DHT22;9648;51.130;13.978;2023-05-20T02:04:22;10.20;99.90
19031;DHT22;9648;51.130;13.978;2023-05-20T02:06:49;10.20;99.90
19031;DHT22;9648;51.130;13.978;2023-05-20T02:09:17;10.20;99.90
19031;DHT22;9648;51.130;13.978;2023-05-20T02:11:43;10.20;99.90
19031;DHT22;9648;51.130;13.978;2023-05-20T02:14:11;10.30;99.90
19031;DHT22;9648;51.130;13.978;2023-05-20T02:16:41;10.20;99.90
19031;DHT22;9648;51.130;13.978;2023-05-20T02:19:08;10.20;99.90
19031;DHT22;9648;51.130;13.978;2023-05-20T02:21:41;10.20;99.90
19031;DHT22;9648;51.130;13.978;2023-05-20T02:24:10;10.20;99.90
19031;DHT22;9648;51.130;13.978;2023-05-20T02:26:36;10.20;99.90
19031;DHT22;9648;51.130;13.978;2023-05-20T02:29:03;10.20;99.90
19031;DHT22;9648;51.130;13.978;2023-05-20T02:31:31;10.20;99.90
19031;DHT22;9648;51.130;13.978;2023-05-20T02:33:58;10.20;99.90
19031;DHT22;9648;51.130;13.978;2023-05-20T02:36:24;10.20;99.90
19031;DHT22;9648;51.130;13.978;2023-05-20T02:38:52;10.30;99.90
19031;DHT22;9648;51.130;13.978;2023-05-20T02:41:21;10.30;99.90
19031;DHT22;9648;51.130;13.978;2023-05-20T02:43:47;10.20;99.90
19031;DHT22;9648;51.130;13.978;2023-05-20T02:46:14;10.30;99.90
19031;DHT22;9648;51.130;13.978;2023-05-20T02:48:44;10.30;99.90
19031;DHT22;9648;51.130;13.978;2023-05-20T02:51:11;10.30;99.90
19031;DHT22;9648;51.130;13.978;2023-05-20T02:53:37;10.30;99.90
19031;DHT22;9648;51.130;13.978;2023-05-20T02:56:07;10.30;99.90
19031;DHT22;9648;51.130;13.978;2023-05-20T02:58:34;10.30;99.90
19031;DHT22;9648;51.130;13.978;2023-05-20T03:01:04;10.30;99.90
19031;DHT22;9648;51.130;13.978;2023-05-20T03:03:32;10.30;99.90
19031;DHT22;9648;51.130;13.978;2023-05-20T03:06:00;10.30;99.90
19031;DHT22;9648;51.130;13.978;2023-05-20T03:08:26;10.30;99.90
19031;DHT22;9648;51.130;13.978;2023-05-20T03:10:57;10.20;99.90
19031;DHT22;9648;51.130;13.978;2023-05-20T03:13:24;10.20;99.90
19031;DHT22;9648;51.130;13.978;2023-05-20T03:15:50;10.30;99.90
19031;DHT22;9648;51.130;13.978;2023-05-20T03:18:17;10.30;99.90
19031;DHT22;9648;51.130;13.978;2023-05-20T03:20:44;10.30;99.90
19031;DHT22;9648;51.130;13.978;2023-05-20T03:23:13;10.30;99.90
19031;DHT22;9648;51.130;13.978;2023-05-20T03:25:39;10.30;99.90
19031;DHT22;9648;51.130;13.978;2023-05-20T03:28:09;10.30;99.90
19031;DHT22;9648;51.130;13.978;2023-05-20T03:30:36;10.40;99.90
19031;DHT22;9648;51.130;13.978;2023-05-20T03:33:03;10.40;99.90
19031;DHT22;9648;51.130;13.978;2023-05-20T03:35:30;10.50;99.90
19031;DHT22;9648;51.130;13.978;2023-05-20T03:38:00;10.50;99.90
19031;DHT22;9648;51.130;13.978;2023-05-20T03:40:28;10.50;99.90
19031;DHT22;9648;51.130;13.978;2023-05-20T03:42:57;10.60;99.90
19031;DHT22;9648;51.130;13.978;2023-05-20T03:45:24;10.60;99.90
19031;DHT22;9648;51.130;13.978;2023-05-20T03:47:54;10.60;99.90
19031;DHT22;9648;51.130;13.978;2023-05-20T03:50:21;10.60;99.90
19031;DHT22;9648;51.130;13.978;2023-05-20T03:52:47;10.70;99.90
19031;DHT22;9648;51.130;13.978;2023-05-20T03:55:14;10.70;99.90
19031;DHT22;9648;51.130;13.978;2023-05-20T03:57:42;10.80;99.90
19031;DHT22;9648;51.130;13.978;2023-05-20T04:00:13;10.80;99.90
19031;DHT22;9648;51.130;13.978;2023-05-20T04:02:41;10.80;99.90
19031;DHT22;9648;51.130;13.978;2023-05-20T04:05:08;10.80;99.90
19031;DHT22;9648;51.130;13.978;2023-05-20T04:07:35;10.80;99.90
19031;DHT22;9648;51.130;13.978;2023-05-20T04:10:02;10.80;99.90
19031;DHT22;9648;51.130;13.978;2023-05-20T04:12:28;10.80;99.90
19031;DHT22;9648;51.130;13.978;2023-05-20T04:14:58;10.80;99.90
19031;DHT22;9648;51.130;13.978;2023-05-20T04:17:26;10.80;99.90
19031;DHT22;9648;51.130;13.978;2023-05-20T04:19:54;10.80;99.90
19031;DHT22;9648;51.130;13.978;2023-05-20T04:22:21;10.90;99.90
19031;DHT22;9648;51.130;13.978;2023-05-20T04:24:48;10.90;99.90
19031;DHT22;9648;51.130;13.978;2023-05-20T04:27:15;10.90;99.90
19031;DHT22;9648;51.130;13.978;2023-05-20T04:29:42;11.00;99.90
19031;DHT22;9648;51.130;13.978;2023-05-20T04:32:11;11.00;99.90
19031;DHT22;9648;51.130;13.978;2023-05-20T04:34:38;11.00;99.90
19031;DHT22;9648;51.130;13.978;2023-05-20T04:37:08;11.00;99.90
19031;DHT22;9648;51.130;13.978;2023-05-20T04:39:34;11.00;99.90
19031;DHT22;9648;51.130;13.978;2023-05-20T04:42:04;11.00;99.90
19031;DHT22;9648;51.130;13.978;2023-05-20T04:44:31;11.00;99.90
19031;DHT22;9648;51.130;13.978;2023-05-20T04:46:58;11.10;99.90
19031;DHT22;9648;51.130;13.978;2023-05-20T04:49:26;11.10;99.90
19031;DHT22;9648;51.130;13.978;2023-05-20T04:51:56;11.20;99.90
19031;DHT22;9648;51.130;13.978;2023-05-20T04:54:23;11.20;99.90
19031;DHT22;9648;51.130;13.978;2023-05-20T04:56:50;11.20;99.90
19031;DHT22;9648;51.130;13.978;2023-05-20T04:59:16;11.20;99.90
19031;DHT22;9648;51.130;13.978;2023-05-20T05:01:43;11.30;99.90
19031;DHT22;9648;51.130;13.978;2023-05-20T05:04:10;11.30;99.90
19031;DHT22;9648;51.130;13.978;2023-05-20T05:06:38;11.40;99.90
19031;DHT22;9648;51.130;13.978;2023-05-20T05:09:04;11.40;99.90
19031;DHT22;9648;51.130;13.978;2023-05-20T05:11:32;11.40;99.90
19031;DHT22;9648;51.130;13.978;2023-05-20T05:13:59;11.50;99.90
19031;DHT22;9648;51.130;13.978;2023-05-20T05:16:28;11.50;99.90
19031;DHT22;9648;51.130;13.978;2023-05-20T05:18:55;11.50;99.90
19031;DHT22;9648;51.130;13.978;2023-05-20T05:21:22;11.50;99.90
19031;DHT22;9648;51.130;13.978;2023-05-20T05:23:50;11.50;99.90
19031;DHT22;9648;51.130;13.978;2023-05-20T05:26:16;11.50;99.90
19031;DHT22;9648;51.130;13.978;2023-05-20T05:28:43;11.50;99.90
19031;DHT22;9648;51.130;13.978;2023-05-20T05:31:10;11.60;99.90
19031;DHT22;9648;51.130;13.978;2023-05-20T05:33:36;11.60;99.90
19031;DHT22;9648;51.130;13.978;2023-05-20T05:36:03;11.60;99.90
19031;DHT22;9648;51.130;13.978;2023-05-20T05:38:33;11.60;99.90
19031;DHT22;9648;51.130;13.978;2023-05-20T05:41:02;11.60;99.90
19031;DHT22;9648;51.130;13.978;2023-05-20T05:43:29;11.70;99.90
19031;DHT22;9648;51.130;13.978;2023-05-20T05:45:56;11.70;99.90
19031;DHT22;9648;51.130;13.978;2023-05-20T05:48:24;11.60;99.90
19031;DHT22;9648;51.130;13.978;2023-05-20T05:50:50;11.70;99.90
19031;DHT22;9648;51.130;13.978;2023-05-20T05:53:23;11.80;99.90
19031;DHT22;9648;51.130;13.978;2023-05-20T05:55:50;11.80;99.90
19031;DHT22;9648;51.130;13.978;2023-05-20T05:58:18;11.90;99.90
19031;DHT22;9648;51.130;13.978;2023-05-20T06:00:45;11.90;99.90
19031;DHT22;9648;51.130;13.978;2023-05-20T06:03:12;12.00;99.90
19031;DHT22;9648;51.130;13.978;2023-05-20T06:05:38;12.00;99.90
19031;DHT22;9648;51.130;13.978;2023-05-20T06:08:05;12.00;99.90
19031;DHT22;9648;51.130;13.978;2023-05-20T06:10:32;12.10;99.90
19031;DHT22;9648;51.130;13.978;2023-05-20T06:12:58;12.10;99.90
19031;DHT22;9648;51.130;13.978;2023-05-20T06:15:26;12.10;99.90
19031;DHT22;9648;51.130;13.978;2023-05-20T06:17:53;12.10;99.90
19031;DHT22;9648;51.130;13.978;2023-05-20T06:20:20;12.20;99.90
19031;DHT22;9648;51.130;13.978;2023-05-20T06:22:46;12.30;99.90
19031;DHT22;9648;51.130;13.978;2023-05-20T06:25:13;12.40;99.90
19031;DHT22;9648;51.130;13.978;2023-05-20T06:27:40;12.50;99.90
19031;DHT22;9648;51.130;13.978;2023-05-20T06:30:07;12.60;99.90
19031;DHT22;9648;51.130;13.978;2023-05-20T06:32:35;12.70;99.90
19031;DHT22;9648;51.130;13.978;2023-05-20T06:35:03;12.80;99.90
19031;DHT22;9648;51.130;13.978;2023-05-20T06:37:30;12.90;99.90
19031;DHT22;9648;51.130;13.978;2023-05-20T06:39:57;13.00;99.90
19031;DHT22;9648;51.130;13.978;2023-05-20T06:42:23;13.20;99.90
19031;DHT22;9648;51.130;13.978;2023-05-20T06:44:51;13.00;99.90
19031;DHT22;9648;51.130;13.978;2023-05-20T06:47:17;13.10;99.90
19031;DHT22;9648;51.130;13.978;2023-05-20T06:49:46;13.20;99.90
19031;DHT22;9648;51.130;13.978;2023-05-20T06:52:12;13.30;99.90
19031;DHT22;9648;51.130;13.978;2023-05-20T06:54:39;13.40;99.90
19031;DHT22;9648;51.130;13.978;2023-05-20T06:57:07;13.60;99.90
19031;DHT22;9648;51.130;13.978;2023-05-20T06:59:34;13.90;99.90
19031;DHT22;9648;51.130;13.978;2023-05-20T07:02:01;13.80;99.90
19031;DHT22;9648;51.130;13.978;2023-05-20T07:04:28;13.70;99.90
19031;DHT22;9648;51.130;13.978;2023-05-20T07:06:56;13.70;99.90
19031;DHT22;9648;51.130;13.978;2023-05-20T07:09:23;13.70;99.90
19031;DHT22;9648;51.130;13.978;2023-05-20T07:11:50;13.80;99.90
19031;DHT22;9648;51.130;13.978;2023-05-20T07:14:16;13.80;99.90
19031;DHT22;9648;51.130;13.978;2023-05-20T07:16:43;13.80;99.90
19031;DHT22;9648;51.130;13.978;2023-05-20T07:19:10;13.80;99.90
19031;DHT22;9648;51.130;13.978;2023-05-20T07:21:37;13.80;99.90
19031;DHT22;9648;51.130;13.978;2023-05-20T07:24:05;13.90;99.90
19031;DHT22;9648;51.130;13.978;2023-05-20T07:26:32;13.90;99.90
19031;DHT22;9648;51.130;13.978;2023-05-20T07:29:01;14.00;99.90
19031;DHT22;9648;51.130;13.978;2023-05-20T07:31:29;14.10;99.90
19031;DHT22;9648;51.130;13.978;2023-05-20T07:33:56;14.20;99.90
19031;DHT22;9648;51.130;13.978;2023-05-20T07:36:23;14.30;99.90
19031;DHT22;9648;51.130;13.978;2023-05-20T07:38:52;14.40;99.90
19031;DHT22;9648;51.130;13.978;2023-05-20T07:41:23;14.60;99.90
19031;DHT22;9648;51.130;13.978;2023-05-20T07:43:51;14.90;99.90
19031;DHT22;9648;51.130;13.978;2023-05-20T07:46:19;15.10;99.90
19031;DHT22;9648;51.130;13.978;2023-05-20T07:48:46;15.10;99.90
19031;DHT22;9648;51.130;13.978;2023-05-20T07:51:15;15.30;99.90
19031;DHT22;9648;51.130;13.978;2023-05-20T07:53:43;15.30;99.90
19031;DHT22;9648;51.130;13.978;2023-05-20T07:56:10;15.40;99.90
19031;DHT22;9648;51.130;13.978;2023-05-20T07:58:40;15.50;99.90
19031;DHT22;9648;51.130;13.978;2023-05-20T08:01:07;15.40;99.90
19031;DHT22;9648;51.130;13.978;2023-05-20T08:03:34;15.30;99.90
19031;DHT22;9648;51.130;13.978;2023-05-20T08:06:04;15.20;99.90
19031;DHT22;9648;51.130;13.978;2023-05-20T08:08:31;15.30;99.90
19031;DHT22;9648;51.130;13.978;2023-05-20T08:10:57;15.60;99.90
19031;DHT22;9648;51.130;13.978;2023-05-20T08:13:26;15.70;99.90
19031;DHT22;9648;51.130;13.978;2023-05-20T08:15:54;15.50;99.90
19031;DHT22;9648;51.130;13.978;2023-05-20T08:18:21;15.20;99.90
19031;DHT22;9648;51.130;13.978;2023-05-20T08:20:49;15.30;99.90
19031;DHT22;9648;51.130;13.978;2023-05-20T08:23:16;15.30;99.90
19031;DHT22;9648;51.130;13.978;2023-05-20T08:25:43;15.60;99.90
19031;DHT22;9648;51.130;13.978;2023-05-20T08:28:13;15.80;99.90
19031;DHT22;9648;51.130;13.978;2023-05-20T08:30:40;15.70;99.90
19031;DHT22;9648;51.130;13.978;2023-05-20T08:33:11;15.50;99.90
19031;DHT22;9648;51.130;13.978;2023-05-20T08:35:38;15.40;99.90
19031;DHT22;9648;51.130;13.978;2023-05-20T08:38:05;15.50;99.90
19031;DHT22;9648;51.130;13.978;2023-05-20T08:40:34;15.60;99.90
19031;DHT22;9648;51.130;13.978;2023-05-20T08:43:01;15.60;99.90
19031;DHT22;9648;51.130;13.978;2023-05-20T08:45:31;15.80;99.90
19031;DHT22;9648;51.130;13.978;2023-05-20T08:47:58;16.10;99.90
19031;DHT22;9648;51.130;13.978;2023-05-20T08:50:26;16.00;99.90
19031;DHT22;9648;51.130;13.978;2023-05-20T08:52:53;15.90;99.90
19031;DHT22;9648;51.130;13.978;2023-05-20T08:55:24;16.10;99.90
19031;DHT22;9648;51.130;13.978;2023-05-20T08:57:52;16.30;99.90
19031;DHT22;9648;51.130;13.978;2023-05-20T09:00:23;16.70;99.90
19031;DHT22;9648;51.130;13.978;2023-05-20T09:02:53;16.90;99.90
19031;DHT22;9648;51.130;13.978;2023-05-20T09:05:23;17.10;99.90
19031;DHT22;9648;51.130;13.978;2023-05-20T09:07:51;17.20;99.90
19031;DHT22;9648;51.130;13.978;2023-05-20T09:10:18;17.40;99.90
19031;DHT22;9648;51.130;13.978;2023-05-20T09:12:45;17.30;99.90
19031;DHT22;9648;51.130;13.978;2023-05-20T09:15:12;16.80;99.90
19031;DHT22;9648;51.130;13.978;2023-05-20T09:17:39;16.50;99.90
19031;DHT22;9648;51.130;13.978;2023-05-20T09:20:06;16.20;99.90
19031;DHT22;9648;51.130;13.978;2023-05-20T09:22:34;16.20;99.90
19031;DHT22;9648;51.130;13.978;2023-05-20T09:25:06;16.30;99.90
19031;DHT22;9648;51.130;13.978;2023-05-20T09:27:33;16.20;99.90
19031;DHT22;9648;51.130;13.978;2023-05-20T09:30:00;16.30;99.90
19031;DHT22;9648;51.130;13.978;2023-05-20T09:32:30;16.40;99.90
19031;DHT22;9648;51.130;13.978;2023-05-20T09:34:57;16.70;99.90
19031;DHT22;9648;51.130;13.978;2023-05-20T09:37:26;16.80;99.90
19031;DHT22;9648;51.130;13.978;2023-05-20T09:39:55;16.70;99.90
19031;DHT22;9648;51.130;13.978;2023-05-20T09:42:27;16.50;99.90
19031;DHT22;9648;51.130;13.978;2023-05-20T09:44:54;16.70;99.90
19031;DHT22;9648;51.130;13.978;2023-05-20T09:47:25;16.90;99.90
19031;DHT22;9648;51.130;13.978;2023-05-20T09:49:52;17.30;99.90
19031;DHT22;9648;51.130;13.978;2023-05-20T09:52:19;16.90;99.90
19031;DHT22;9648;51.130;13.978;2023-05-20T09:54:47;16.50;99.90
19031;DHT22;9648;51.130;13.978;2023-05-20T09:57:18;16.30;99.90
19031;DHT22;9648;51.130;13.978;2023-05-20T09:59:46;16.00;99.90
19031;DHT22;9648;51.130;13.978;2023-05-20T10:02:13;15.90;99.90
19031;DHT22;9648;51.130;13.978;2023-05-20T10:04:44;16.00;99.90
19031;DHT22;9648;51.130;13.978;2023-05-20T10:07:45;16.10;99.90
19031;DHT22;9648;51.130;13.978;2023-05-20T10:10:24;16.10;99.90
19031;DHT22;9648;51.130;13.978;2023-05-20T10:12:58;16.30;99.90
19031;DHT22;9648;51.130;13.978;2023-05-20T10:15:33;16.60;99.90
19031;DHT22;9648;51.130;13.978;2023-05-20T10:18:27;16.50;99.90
19031;DHT22;9648;51.130;13.978;2023-05-20T10:20:55;16.40;99.90
19031;DHT22;9648;51.130;13.978;2023-05-20T10:23:27;16.20;99.90
19031;DHT22;9648;51.130;13.978;2023-05-20T10:25:57;16.40;99.90
19031;DHT22;9648;51.130;13.978;2023-05-20T10:28:28;16.40;99.90
19031;DHT22;9648;51.130;13.978;2023-05-20T10:30:57;16.50;99.90
19031;DHT22;9648;51.130;13.978;2023-05-20T10:33:25;16.50;99.90
19031;DHT22;9648;51.130;13.978;2023-05-20T10:35:53;16.60;99.90
19031;DHT22;9648;51.130;13.978;2023-05-20T10:38:23;16.70;99.90
19031;DHT22;9648;51.130;13.978;2023-05-20T10:40:53;16.70;99.90
19031;DHT22;9648;51.130;13.978;2023-05-20T10:43:27;17.00;99.90
19031;DHT22;9648;51.130;13.978;2023-05-20T10:45:56;17.30;99.90
19031;DHT22;9648;51.130;13.978;2023-05-20T10:48:26;17.50;99.90
19031;DHT22;9648;51.130;13.978;2023-05-20T10:50:54;17.70;99.90
19031;DHT22;9648;51.130;13.978;2023-05-20T10:53:23;17.70;99.90
19031;DHT22;9648;51.130;13.978;2023-05-20T10:55:52;17.60;99.90
19031;DHT22;9648;51.130;13.978;2023-05-20T10:58:23;17.60;99.90
19031;DHT22;9648;51.130;13.978;2023-05-20T11:00:53;17.40;99.90
19031;DHT22;9648;51.130;13.978;2023-05-20T11:03:21;17.60;99.90
19031;DHT22;9648;51.130;13.978;2023-05-20T11:05:49;17.70;99.90
19031;DHT22;9648;51.130;13.978;2023-05-20T11:08:16;18.00;99.90
19031;DHT22;9648;51.130;13.978;2023-05-20T11:10:43;18.10;99.90
19031;DHT22;9648;51.130;13.978;2023-05-20T11:13:11;18.20;99.90
19031;DHT22;9648;51.130;13.978;2023-05-20T11:15:39;18.20;99.90
19031;DHT22;9648;51.130;13.978;2023-05-20T11:18:10;18.20;99.90
19031;DHT22;9648;51.130;13.978;2023-05-20T11:20:38;18.00;99.90
19031;DHT22;9648;51.130;13.978;2023-05-20T11:23:10;18.00;99.90
19031;DHT22;9648;51.130;13.978;2023-05-20T11:25:36;17.80;99.90
19031;DHT22;9648;51.130;13.978;2023-05-20T11:28:03;18.00;99.90
19031;DHT22;9648;51.130;13.978;2023-05-20T11:30:30;18.10;99.90
19031;DHT22;9648;51.130;13.978;2023-05-20T11:32:58;18.20;99.90
19031;DHT22;9648;51.130;13.978;2023-05-20T11:35:28;18.30;99.90
19031;DHT22;9648;51.130;13.978;2023-05-20T11:38:01;18.40;99.90
19031;DHT22;9648;51.130;13.978;2023-05-20T11:40:28;18.40;99.90
19031;DHT22;9648;51.130;13.978;2023-05-20T11:42:57;18.40;99.90
19031;DHT22;9648;51.130;13.978;2023-05-20T11:45:38;18.40;99.90
19031;DHT22;9648;51.130;13.978;2023-05-20T11:48:09;18.60;99.90
19031;DHT22;9648;51.130;13.978;2023-05-20T11:50:38;18.70;99.90
19031;DHT22;9648;51.130;13.978;2023-05-20T11:53:08;18.80;99.90
19031;DHT22;9648;51.130;13.978;2023-05-20T11:55:44;19.10;99.90
19031;DHT22;9648;51.130;13.978;2023-05-20T11:58:14;19.30;99.90
19031;DHT22;9648;51.130;13.978;2023-05-20T12:00:41;19.10;99.90
19031;DHT22;9648;51.130;13.978;2023-05-20T12:03:08;19.00;99.90
19031;DHT22;9648;51.130;13.978;2023-05-20T12:05:35;19.10;99.90
19031;DHT22;9648;51.130;13.978;2023-05-20T12:08:02;19.20;99.90
19031;DHT22;9648;51.130;13.978;2023-05-20T12:10:30;19.40;99.90
19031;DHT22;9648;51.130;13.978;2023-05-20T12:12:57;19.60;99.90
19031;DHT22;9648;51.130;13.978;2023-05-20T12:15:26;19.50;99.90
19031;DHT22;9648;51.130;13.978;2023-05-20T12:17:53;19.40;99.90
19031;DHT22;9648;51.130;13.978;2023-05-20T12:20:24;19.30;99.90
19031;DHT22;9648;51.130;13.978;2023-05-20T12:22:50;19.40;99.90
19031;DHT22;9648;51.130;13.978;2023-05-20T12:25:18;19.50;99.90
19031;DHT22;9648;51.130;13.978;2023-05-20T12:27:48;19.70;99.90
19031;DHT22;9648;51.130;13.978;2023-05-20T12:30:16;19.80;99.90
19031;DHT22;9648;51.130;13.978;2023-05-20T12:32:43;20.00;99.90
19031;DHT22;9648;51.130;13.978;2023-05-20T12:35:10;20.10;99.90
19031;DHT22;9648;51.130;13.978;2023-05-20T12:37:38;20.00;99.90
19031;DHT22;9648;51.130;13.978;2023-05-20T12:40:10;20.00;99.90
19031;DHT22;9648;51.130;13.978;2023-05-20T12:42:37;20.10;99.90
19031;DHT22;9648;51.130;13.978;2023-05-20T12:45:07;20.10;99.90
19031;DHT22;9648;51.130;13.978;2023-05-20T12:47:37;19.90;99.90
19031;DHT22;9648;51.130;13.978;2023-05-20T12:50:04;19.80;99.90
19031;DHT22;9648;51.130;13.978;2023-05-20T12:52:31;19.80;99.90
19031;DHT22;9648;51.130;13.978;2023-05-20T12:54:58;19.90;99.90
19031;DHT22;9648;51.130;13.978;2023-05-20T12:57:25;19.80;99.90
19031;DHT22;9648;51.130;13.978;2023-05-20T12:59:52;19.80;99.90
19031;DHT22;9648;51.130;13.978;2023-05-20T13:02:20;19.80;99.90
19031;DHT22;9648;51.130;13.978;2023-05-20T13:04:46;19.90;99.90
19031;DHT22;9648;51.130;13.978;2023-05-20T13:07:13;20.10;99.90
19031;DHT22;9648;51.130;13.978;2023-05-20T13:09:40;20.20;99.90
19031;DHT22;9648;51.130;13.978;2023-05-20T13:12:09;20.40;99.90
19031;DHT22;9648;51.130;13.978;2023-05-20T13:14:39;20.50;99.90
19031;DHT22;9648;51.130;13.978;2023-05-20T13:17:06;20.40;99.90
19031;DHT22;9648;51.130;13.978;2023-05-20T13:19:34;20.60;99.90
19031;DHT22;9648;51.130;13.978;2023-05-20T13:22:02;20.60;99.90
19031;DHT22;9648;51.130;13.978;2023-05-20T13:24:33;20.80;99.90
19031;DHT22;9648;51.130;13.978;2023-05-20T13:27:00;20.80;99.90
19031;DHT22;9648;51.130;13.978;2023-05-20T13:29:27;20.60;99.90
19031;DHT22;9648;51.130;13.978;2023-05-20T13:31:54;20.60;99.90
19031;DHT22;9648;51.130;13.978;2023-05-20T13:34:23;20.60;99.90
19031;DHT22;9648;51.130;13.978;2023-05-20T13:36:51;20.40;99.90
19031;DHT22;9648;51.130;13.978;2023-05-20T13:39:18;20.50;99.90
19031;DHT22;9648;51.130;13.978;2023-05-20T13:41:44;20.50;99.90
19031;DHT22;9648;51.130;13.978;2023-05-20T13:44:11;20.50;99.90
19031;DHT22;9648;51.130;13.978;2023-05-20T13:46:41;20.60;99.90
19031;DHT22;9648;51.130;13.978;2023-05-20T13:49:08;20.50;99.90
19031;DHT22;9648;51.130;13.978;2023-05-20T13:51:38;20.60;99.90
19031;DHT22;9648;51.130;13.978;2023-05-20T13:54:08;20.80;99.90
19031;DHT22;9648;51.130;13.978;2023-05-20T13:56:35;20.70;99.90
19031;DHT22;9648;51.130;13.978;2023-05-20T13:59:02;20.50;99.90
19031;DHT22;9648;51.130;13.978;2023-05-20T14:01:29;20.50;99.90
19031;DHT22;9648;51.130;13.978;2023-05-20T14:03:57;20.50;99.90
19031;DHT22;9648;51.130;13.978;2023-05-20T14:06:24;20.70;99.90
19031;DHT22;9648;51.130;13.978;2023-05-20T14:08:53;20.80;99.90
19031;DHT22;9648;51.130;13.978;2023-05-20T14:11:21;20.80;99.90
19031;DHT22;9648;51.130;13.978;2023-05-20T14:13:48;20.60;99.90
19031;DHT22;9648;51.130;13.978;2023-05-20T14:16:15;20.80;99.90
19031;DHT22;9648;51.130;13.978;2023-05-20T14:18:42;21.00;99.90
19031;DHT22;9648;51.130;13.978;2023-05-20T14:21:09;21.20;99.90
19031;DHT22;9648;51.130;13.978;2023-05-20T14:23:36;21.30;99.90
19031;DHT22;9648;51.130;13.978;2023-05-20T14:26:03;21.30;99.90
19031;DHT22;9648;51.130;13.978;2023-05-20T14:28:31;21.40;99.90
19031;DHT22;9648;51.130;13.978;2023-05-20T14:30:57;21.60;99.90
19031;DHT22;9648;51.130;13.978;2023-05-20T14:33:24;21.60;99.90
19031;DHT22;9648;51.130;13.978;2023-05-20T14:35:51;21.70;99.90
19031;DHT22;9648;51.130;13.978;2023-05-20T14:38:17;21.80;99.90
19031;DHT22;9648;51.130;13.978;2023-05-20T14:40:45;21.70;99.90
19031;DHT22;9648;51.130;13.978;2023-05-20T14:43:12;21.60;99.90
19031;DHT22;9648;51.130;13.978;2023-05-20T14:45:40;21.40;99.90
19031;DHT22;9648;51.130;13.978;2023-05-20T14:48:07;21.30;99.90
19031;DHT22;9648;51.130;13.978;2023-05-20T14:50:33;21.30;99.90
19031;DHT22;9648;51.130;13.978;2023-05-20T14:53:00;21.30;99.90
19031;DHT22;9648;51.130;13.978;2023-05-20T14:55:30;21.60;99.90
19031;DHT22;9648;51.130;13.978;2023-05-20T14:57:57;21.60;99.90
19031;DHT22;9648;51.130;13.978;2023-05-20T15:00:24;21.50;99.90
19031;DHT22;9648;51.130;13.978;2023-05-20T15:02:52;21.40;99.90
19031;DHT22;9648;51.130;13.978;2023-05-20T15:05:18;21.40;99.90
19031;DHT22;9648;51.130;13.978;2023-05-20T15:07:45;21.50;99.90
19031;DHT22;9648;51.130;13.978;2023-05-20T15:10:12;21.50;99.90
19031;DHT22;9648;51.130;13.978;2023-05-20T15:12:38;21.50;99.90
19031;DHT22;9648;51.130;13.978;2023-05-20T15:15:06;21.60;99.90
19031;DHT22;9648;51.130;13.978;2023-05-20T15:17:32;21.80;99.90
19031;DHT22;9648;51.130;13.978;2023-05-20T15:20:00;22.00;99.90
19031;DHT22;9648;51.130;13.978;2023-05-20T15:22:27;21.90;99.90
19031;DHT22;9648;51.130;13.978;2023-05-20T15:24:54;21.80;99.90
19031;DHT22;9648;51.130;13.978;2023-05-20T15:27:21;21.80;99.90
19031;DHT22;9648;51.130;13.978;2023-05-20T15:29:48;21.80;99.90
19031;DHT22;9648;51.130;13.978;2023-05-20T15:32:14;21.60;99.90
19031;DHT22;9648;51.130;13.978;2023-05-20T15:34:41;21.60;99.90